createdAt,value
2018-11-10T00:00:36.221Z,1028.79
2018-11-10T00:01:36.175Z,1028.83
2018-11-10T00:02:36.162Z,1028.84
2018-11-10T00:03:36.157Z,1028.83
2018-11-10T00:04:36.146Z,1028.82
2018-11-10T00:05:36.134Z,1028.85
2018-11-10T00:06:36.117Z,1028.85
2018-11-10T00:07:36.112Z,1028.93
2018-11-10T00:08:36.095Z,1028.9
2018-11-10T00:09:36.088Z,1028.85
2018-11-10T00:10:36.073Z,1028.86
2018-11-10T00:11:36.067Z,1028.81
2018-11-10T00:12:36.050Z,1028.83
2018-11-10T00:13:36.040Z,1028.8
2018-11-10T00:14:36.032Z,1028.85
2018-11-10T00:15:36.022Z,1028.87
2018-11-10T00:16:36.058Z,1028.85
2018-11-10T00:17:35.996Z,1028.82
2018-11-10T00:18:35.983Z,1028.79
2018-11-10T00:19:35.972Z,1028.77
2018-11-10T00:20:35.967Z,1028.75
2018-11-10T00:21:35.951Z,1028.77
2018-11-10T00:22:35.944Z,1028.78
2018-11-10T00:23:35.928Z,1028.79
2018-11-10T00:24:35.921Z,1028.78
2018-11-10T00:25:35.906Z,1028.72
2018-11-10T00:26:35.899Z,1028.69
2018-11-10T00:27:35.882Z,1028.7
2018-11-10T00:28:35.878Z,1028.67
2018-11-10T00:29:35.861Z,1028.69
2018-11-10T00:30:36.099Z,1028.7
2018-11-10T00:31:35.843Z,1028.68
2018-11-10T00:32:35.834Z,1028.71
2018-11-10T00:33:35.817Z,1028.67
2018-11-10T00:34:35.827Z,1028.65
2018-11-10T00:35:35.796Z,1028.68
2018-11-10T00:36:35.788Z,1028.7
2018-11-10T00:37:35.772Z,1028.74
2018-11-10T00:38:35.764Z,1028.76
2018-11-10T00:39:35.749Z,1028.77
2018-11-10T00:40:35.743Z,1028.78
2018-11-10T00:41:35.726Z,1028.77
2018-11-10T00:42:35.719Z,1028.8
2018-11-10T00:43:35.704Z,1028.79
2018-11-10T00:44:35.700Z,1028.73
2018-11-10T00:45:35.688Z,1028.72
2018-11-10T00:46:35.676Z,1028.73
2018-11-10T00:47:35.660Z,1028.77
2018-11-10T00:48:35.649Z,1028.8
2018-11-10T00:49:35.644Z,1028.8
2018-11-10T00:50:35.629Z,1028.82
2018-11-10T00:51:35.620Z,1028.83
2018-11-10T00:52:35.602Z,1028.81
2018-11-10T00:53:35.598Z,1028.81
2018-11-10T00:54:35.587Z,1028.78
2018-11-10T00:55:35.569Z,1028.79
2018-11-10T00:56:35.561Z,1028.79
2018-11-10T00:57:35.546Z,1028.82
2018-11-10T00:58:35.540Z,1028.87
2018-11-10T00:59:35.524Z,1028.91
2018-11-10T01:00:35.519Z,1028.91
2018-11-10T01:01:35.755Z,1028.92
2018-11-10T01:02:35.494Z,1028.92
2018-11-10T01:03:35.480Z,1028.89
2018-11-10T01:04:35.466Z,1028.9
2018-11-10T01:05:35.508Z,1028.9
2018-11-10T01:06:35.448Z,1028.91
2018-11-10T01:07:35.436Z,1028.92
2018-11-10T01:08:35.419Z,1028.91
2018-11-10T01:09:35.416Z,1028.94
2018-11-10T01:10:35.398Z,1028.94
2018-11-10T01:11:35.390Z,1028.9
2018-11-10T01:12:35.377Z,1028.85
2018-11-10T01:13:35.366Z,1028.84
2018-11-10T01:14:35.349Z,1028.86
2018-11-10T01:15:35.343Z,1028.82
2018-11-10T01:16:35.328Z,1028.81
2018-11-10T01:17:35.316Z,1028.84
2018-11-10T01:18:35.303Z,1028.76
2018-11-10T01:19:35.297Z,1028.76
2018-11-10T01:20:35.281Z,1028.8
2018-11-10T01:21:35.276Z,1028.76
2018-11-10T01:22:35.265Z,1028.79
2018-11-10T01:23:35.250Z,1028.78
2018-11-10T01:24:35.234Z,1028.78
2018-11-10T01:25:35.226Z,1028.77
2018-11-10T01:26:35.210Z,1028.75
2018-11-10T01:27:35.257Z,1028.78
2018-11-10T01:28:35.187Z,1028.8
2018-11-10T01:29:35.181Z,1028.76
2018-11-10T01:30:35.164Z,1028.79
2018-11-10T01:31:35.157Z,1028.76
2018-11-10T01:32:35.141Z,1028.73
2018-11-10T01:33:35.128Z,1028.74
2018-11-10T01:34:35.117Z,1028.75
2018-11-10T01:35:35.112Z,1028.77
2018-11-10T01:36:35.099Z,1028.81
2018-11-10T01:37:35.082Z,1028.8
2018-11-10T01:38:35.071Z,1028.8
2018-11-10T01:39:35.059Z,1028.81
2018-11-10T01:40:35.050Z,1028.81
2018-11-10T01:41:35.035Z,1028.82
2018-11-10T01:42:35.031Z,1028.85
2018-11-10T01:43:35.012Z,1028.86
2018-11-10T01:44:35.004Z,1028.84
2018-11-10T01:45:34.987Z,1028.86
2018-11-10T01:46:34.976Z,1028.85
2018-11-10T01:47:34.967Z,1028.85
2018-11-10T01:48:34.955Z,1028.9
2018-11-10T01:49:34.939Z,1028.89
2018-11-10T01:50:34.929Z,1028.91
2018-11-10T01:51:34.920Z,1028.92
2018-11-10T01:52:34.909Z,1028.89
2018-11-10T01:53:34.893Z,1028.92
2018-11-10T01:54:34.880Z,1028.88
2018-11-10T01:55:34.868Z,1028.85
2018-11-10T01:56:34.863Z,1028.84
2018-11-10T01:57:34.846Z,1028.8
2018-11-10T01:58:34.836Z,1028.79
2018-11-10T01:59:34.820Z,1028.78
2018-11-10T02:00:34.814Z,1028.73
2018-11-10T02:01:34.797Z,1028.7
2018-11-10T02:02:34.790Z,1028.64
2018-11-10T02:03:34.774Z,1028.62
2018-11-10T02:04:34.767Z,1028.61
2018-11-10T02:05:34.754Z,1028.49
2018-11-10T02:06:34.751Z,1028.47
2018-11-10T02:07:34.726Z,1028.46
2018-11-10T02:08:34.715Z,1028.4
2018-11-10T02:09:34.708Z,1028.38
2018-11-10T02:10:34.695Z,1028.36
2018-11-10T02:11:34.678Z,1028.28
2018-11-10T02:12:34.675Z,1028.29
2018-11-10T02:13:34.654Z,1028.28
2018-11-10T02:14:34.667Z,1028.25
2018-11-10T02:15:34.634Z,1028.22
2018-11-10T02:16:34.623Z,1028.19
2018-11-10T02:17:34.607Z,1028.13
2018-11-10T02:18:34.600Z,1028.08
2018-11-10T02:19:34.585Z,1028.1
2018-11-10T02:20:34.577Z,1028.06
2018-11-10T02:21:34.566Z,1028.03
2018-11-10T02:22:34.554Z,1028.06
2018-11-10T02:23:34.537Z,1028.01
2018-11-10T02:24:34.530Z,1028
2018-11-10T02:25:34.514Z,1028
2018-11-10T02:26:34.502Z,1027.98
2018-11-10T02:27:34.490Z,1027.96
2018-11-10T02:28:34.483Z,1027.95
2018-11-10T02:29:34.467Z,1027.94
2018-11-10T02:30:34.461Z,1027.9
2018-11-10T02:31:34.443Z,1027.92
2018-11-10T02:32:34.438Z,1027.93
2018-11-10T02:33:34.422Z,1027.91
2018-11-10T02:34:34.416Z,1027.95
2018-11-10T02:35:34.398Z,1027.9
2018-11-10T02:36:34.391Z,1027.94
2018-11-10T02:37:34.379Z,1027.91
2018-11-10T02:38:34.400Z,1027.89
2018-11-10T02:39:34.361Z,1027.86
2018-11-10T02:40:34.345Z,1027.86
2018-11-10T02:41:34.330Z,1027.85
2018-11-10T02:42:34.317Z,1027.87
2018-11-10T02:43:34.315Z,1027.89
2018-11-10T02:44:34.303Z,1027.85
2018-11-10T02:45:34.288Z,1027.85
2018-11-10T02:46:34.277Z,1027.83
2018-11-10T02:47:34.260Z,1027.81
2018-11-10T02:48:34.253Z,1027.82
2018-11-10T02:49:34.237Z,1027.82
2018-11-10T02:50:34.231Z,1027.77
2018-11-10T02:51:34.215Z,1027.77
2018-11-10T02:52:34.216Z,1027.78
2018-11-10T02:53:34.196Z,1027.73
2018-11-10T02:54:34.184Z,1027.73
2018-11-10T02:55:34.170Z,1027.69
2018-11-10T02:56:34.158Z,1027.73
2018-11-10T02:57:34.152Z,1027.71
2018-11-10T02:58:34.140Z,1027.72
2018-11-10T02:59:34.129Z,1027.7
2018-11-10T03:00:34.112Z,1027.7
2018-11-10T03:01:34.105Z,1027.65
2018-11-10T03:02:34.095Z,1027.68
2018-11-10T03:03:34.078Z,1027.67
2018-11-10T03:04:34.071Z,1027.64
2018-11-10T03:05:34.056Z,1027.64
2018-11-10T03:06:34.050Z,1027.64
2018-11-10T03:07:34.033Z,1027.62
2018-11-10T03:08:34.031Z,1027.63
2018-11-10T03:09:34.017Z,1027.62
2018-11-10T03:10:34.047Z,1027.59
2018-11-10T03:11:33.989Z,1027.56
2018-11-10T03:12:33.977Z,1027.59
2018-11-10T03:13:33.970Z,1027.56
2018-11-10T03:14:33.959Z,1027.55
2018-11-10T03:15:33.947Z,1027.56
2018-11-10T03:16:34.046Z,1027.53
2018-11-10T03:17:33.927Z,1027.54
2018-11-10T03:18:33.909Z,1027.53
2018-11-10T03:19:33.903Z,1027.51
2018-11-10T03:20:33.894Z,1027.52
2018-11-10T03:21:33.881Z,1027.46
2018-11-10T03:22:33.865Z,1027.52
2018-11-10T03:23:33.858Z,1027.49
2018-11-10T03:24:33.844Z,1027.45
2018-11-10T03:25:33.832Z,1027.49
2018-11-10T03:26:33.820Z,1027.49
2018-11-10T03:27:33.814Z,1027.44
2018-11-10T03:28:33.798Z,1027.47
2018-11-10T03:29:33.791Z,1027.46
2018-11-10T03:30:33.779Z,1027.47
2018-11-10T03:31:33.771Z,1027.5
2018-11-10T03:32:33.755Z,1027.48
2018-11-10T03:33:33.745Z,1027.43
2018-11-10T03:34:33.731Z,1027.46
2018-11-10T03:35:33.723Z,1027.45
2018-11-10T03:36:33.709Z,1027.49
2018-11-10T03:37:33.705Z,1027.46
2018-11-10T03:38:33.686Z,1027.42
2018-11-10T03:39:33.680Z,1027.44
2018-11-10T03:40:33.662Z,1027.41
2018-11-10T03:41:33.653Z,1027.43
2018-11-10T03:42:33.641Z,1027.41
2018-11-10T03:43:33.636Z,1027.44
2018-11-10T03:44:33.623Z,1027.48
2018-11-10T03:45:33.607Z,1027.46
2018-11-10T03:46:33.596Z,1027.46
2018-11-10T03:47:33.586Z,1027.44
2018-11-10T03:48:33.642Z,1027.44
2018-11-10T03:49:33.564Z,1027.43
2018-11-10T03:50:33.558Z,1027.44
2018-11-10T03:51:33.540Z,1027.45
2018-11-10T03:52:33.533Z,1027.46
2018-11-10T03:53:33.518Z,1027.39
2018-11-10T03:54:33.507Z,1027.39
2018-11-10T03:55:33.499Z,1027.38
2018-11-10T03:56:33.484Z,1027.39
2018-11-10T03:57:33.475Z,1027.39
2018-11-10T03:58:33.463Z,1027.36
2018-11-10T03:59:33.454Z,1027.31
2018-11-10T04:00:33.444Z,1027.28
2018-11-10T04:01:33.431Z,1027.3
2018-11-10T04:02:33.417Z,1027.28
2018-11-10T04:03:33.406Z,1027.23
2018-11-10T04:04:33.399Z,1027.19
2018-11-10T04:05:33.384Z,1027.27
2018-11-10T04:06:33.375Z,1027.28
2018-11-10T04:07:33.366Z,1027.23
2018-11-10T04:08:33.600Z,1027.23
2018-11-10T04:09:33.349Z,1027.23
2018-11-10T04:10:33.328Z,1027.22
2018-11-10T04:11:33.327Z,1027.23
2018-11-10T04:12:33.307Z,1027.18
2018-11-10T04:13:33.294Z,1027.21
2018-11-10T04:14:33.286Z,1027.2
2018-11-10T04:15:33.284Z,1027.19
2018-11-10T04:16:33.265Z,1027.2
2018-11-10T04:17:33.249Z,1027.16
2018-11-10T04:18:33.237Z,1027.15
2018-11-10T04:19:33.233Z,1027.16
2018-11-10T04:20:33.217Z,1027.17
2018-11-10T04:21:33.213Z,1027.15
2018-11-10T04:22:33.195Z,1027.14
2018-11-10T04:23:33.186Z,1027.07
2018-11-10T04:24:33.178Z,1027.07
2018-11-10T04:25:33.165Z,1027.13
2018-11-10T04:26:33.149Z,1027.03
2018-11-10T04:27:33.143Z,1027.03
2018-11-10T04:28:33.126Z,1027.04
2018-11-10T04:29:33.117Z,1027.01
2018-11-10T04:30:33.105Z,1027.01
2018-11-10T04:31:33.098Z,1027.02
2018-11-10T04:32:33.088Z,1026.99
2018-11-10T04:33:33.070Z,1026.99
2018-11-10T04:34:33.059Z,1026.96
2018-11-10T04:35:33.048Z,1026.97
2018-11-10T04:36:33.042Z,1027
2018-11-10T04:37:33.026Z,1026.97
2018-11-10T04:38:33.021Z,1026.94
2018-11-10T04:39:33.254Z,1026.93
2018-11-10T04:40:32.997Z,1026.92
2018-11-10T04:41:32.982Z,1026.92
2018-11-10T04:42:32.977Z,1026.88
2018-11-10T04:43:32.961Z,1026.84
2018-11-10T04:44:32.955Z,1026.84
2018-11-10T04:45:32.939Z,1026.78
2018-11-10T04:46:32.927Z,1026.79
2018-11-10T04:47:32.920Z,1026.76
2018-11-10T04:48:32.910Z,1026.79
2018-11-10T04:49:32.938Z,1026.82
2018-11-10T04:50:32.882Z,1026.78
2018-11-10T04:51:32.872Z,1026.83
2018-11-10T04:52:32.867Z,1026.76
2018-11-10T04:53:32.849Z,1026.75
2018-11-10T04:54:32.843Z,1026.76
2018-11-10T04:55:32.829Z,1026.7
2018-11-10T04:56:32.821Z,1026.71
2018-11-10T04:57:32.809Z,1026.7
2018-11-10T04:58:32.801Z,1026.64
2018-11-10T04:59:32.786Z,1026.67
2018-11-10T05:00:32.777Z,1026.69
2018-11-10T05:01:32.817Z,1026.68
2018-11-10T05:02:32.755Z,1026.71
2018-11-10T05:03:32.740Z,1026.73
2018-11-10T05:04:32.728Z,1026.79
2018-11-10T05:05:32.723Z,1026.8
2018-11-10T05:06:32.712Z,1026.81
2018-11-10T05:07:32.701Z,1026.81
2018-11-10T05:08:32.684Z,1026.81
2018-11-10T05:09:32.677Z,1026.84
2018-11-10T05:10:32.668Z,1026.81
2018-11-10T05:11:32.653Z,1026.82
2018-11-10T05:12:32.644Z,1026.77
2018-11-10T05:13:32.630Z,1026.74
2018-11-10T05:14:32.622Z,1026.7
2018-11-10T05:15:32.607Z,1026.71
2018-11-10T05:16:32.604Z,1026.71
2018-11-10T05:17:32.590Z,1026.68
2018-11-10T05:18:32.579Z,1026.66
2018-11-10T05:19:32.562Z,1026.71
2018-11-10T05:20:32.551Z,1026.69
2018-11-10T05:21:32.545Z,1026.69
2018-11-10T05:22:32.534Z,1026.67
2018-11-10T05:23:32.523Z,1026.68
2018-11-10T05:24:32.507Z,1026.68
2018-11-10T05:25:32.500Z,1026.7
2018-11-10T05:26:32.485Z,1026.69
2018-11-10T05:27:32.478Z,1026.69
2018-11-10T05:28:32.468Z,1026.71
2018-11-10T05:29:32.457Z,1026.68
2018-11-10T05:30:32.440Z,1026.66
2018-11-10T05:31:32.473Z,1026.71
2018-11-10T05:32:32.423Z,1026.69
2018-11-10T05:33:32.407Z,1026.67
2018-11-10T05:34:32.396Z,1026.71
2018-11-10T05:35:32.389Z,1026.72
2018-11-10T05:36:32.374Z,1026.75
2018-11-10T05:37:32.366Z,1026.76
2018-11-10T05:38:32.357Z,1026.81
2018-11-10T05:39:32.344Z,1026.78
2018-11-10T05:40:32.330Z,1026.81
2018-11-10T05:41:32.323Z,1026.82
2018-11-10T05:42:32.307Z,1026.79
2018-11-10T05:43:32.301Z,1026.81
2018-11-10T05:44:32.285Z,1026.83
2018-11-10T05:45:32.277Z,1026.77
2018-11-10T05:46:32.262Z,1026.79
2018-11-10T05:47:32.256Z,1026.78
2018-11-10T05:48:32.239Z,1026.79
2018-11-10T05:49:32.232Z,1026.77
2018-11-10T05:50:32.226Z,1026.77
2018-11-10T05:51:32.207Z,1026.75
2018-11-10T05:52:32.195Z,1026.73
2018-11-10T05:53:32.190Z,1026.73
2018-11-10T05:54:32.179Z,1026.74
2018-11-10T05:55:32.169Z,1026.72
2018-11-10T05:56:32.151Z,1026.74
2018-11-10T05:57:32.145Z,1026.73
2018-11-10T05:58:32.130Z,1026.74
2018-11-10T05:59:32.122Z,1026.77
2018-11-10T06:00:32.108Z,1026.76
2018-11-10T06:01:32.102Z,1026.77
2018-11-10T06:02:32.091Z,1026.74
2018-11-10T06:03:32.074Z,1026.67
2018-11-10T06:04:32.069Z,1026.69
2018-11-10T06:05:32.059Z,1026.73
2018-11-10T06:06:32.047Z,1026.69
2018-11-10T06:07:32.030Z,1026.72
2018-11-10T06:08:32.021Z,1026.67
2018-11-10T06:09:32.064Z,1026.68
2018-11-10T06:10:32.129Z,1026.67
2018-11-10T06:11:31.990Z,1026.67
2018-11-10T06:12:31.975Z,1026.66
2018-11-10T06:13:31.970Z,1026.65
2018-11-10T06:14:31.953Z,1026.64
2018-11-10T06:15:31.947Z,1026.62
2018-11-10T06:16:31.935Z,1026.7
2018-11-10T06:17:31.927Z,1026.65
2018-11-10T06:18:31.955Z,1026.71
2018-11-10T06:19:31.908Z,1026.68
2018-11-10T06:20:31.889Z,1026.72
2018-11-10T06:21:31.878Z,1026.62
2018-11-10T06:22:31.867Z,1026.67
2018-11-10T06:23:31.860Z,1026.63
2018-11-10T06:24:31.849Z,1026.56
2018-11-10T06:25:31.837Z,1026.57
2018-11-10T06:26:31.823Z,1026.59
2018-11-10T06:27:31.817Z,1026.6
2018-11-10T06:28:31.807Z,1026.58
2018-11-10T06:29:31.795Z,1026.53
2018-11-10T06:30:31.779Z,1026.51
2018-11-10T06:31:31.774Z,1026.49
2018-11-10T06:32:31.793Z,1026.53
2018-11-10T06:33:31.751Z,1026.5
2018-11-10T06:34:31.736Z,1026.51
2018-11-10T06:35:31.730Z,1026.53
2018-11-10T06:36:31.714Z,1026.52
2018-11-10T06:37:31.704Z,1026.52
2018-11-10T06:38:31.693Z,1026.53
2018-11-10T06:39:31.685Z,1026.5
2018-11-10T06:40:31.675Z,1026.49
2018-11-10T06:41:31.820Z,1026.44
2018-11-10T06:42:31.650Z,1026.42
2018-11-10T06:43:31.644Z,1026.46
2018-11-10T06:44:31.631Z,1026.45
2018-11-10T06:45:31.616Z,1026.46
2018-11-10T06:46:31.610Z,1026.45
2018-11-10T06:47:31.595Z,1026.44
2018-11-10T06:48:31.588Z,1026.41
2018-11-10T06:49:31.573Z,1026.36
2018-11-10T06:50:31.566Z,1026.36
2018-11-10T06:51:31.550Z,1026.36
2018-11-10T06:52:31.544Z,1026.3
2018-11-10T06:53:31.530Z,1026.3
2018-11-10T06:54:31.519Z,1026.25
2018-11-10T06:55:31.513Z,1026.26
2018-11-10T06:56:31.502Z,1026.23
2018-11-10T06:57:31.488Z,1026.19
2018-11-10T06:58:31.481Z,1026.19
2018-11-10T06:59:31.465Z,1026.2
2018-11-10T07:00:31.460Z,1026.17
2018-11-10T07:01:31.443Z,1026.17
2018-11-10T07:02:31.441Z,1026.17
2018-11-10T07:03:31.495Z,1026.14
2018-11-10T07:04:31.418Z,1026.14
2018-11-10T07:05:31.405Z,1026.12
2018-11-10T07:06:31.395Z,1026.16
2018-11-10T07:07:31.380Z,1026.1
2018-11-10T07:08:31.375Z,1026.08
2018-11-10T07:09:31.445Z,1026.06
2018-11-10T07:10:31.355Z,1026.04
2018-11-10T07:11:31.339Z,1025.98
2018-11-10T07:12:31.327Z,1025.96
2018-11-10T07:13:31.321Z,1025.93
2018-11-10T07:14:31.311Z,1025.88
2018-11-10T07:15:31.551Z,1025.91
2018-11-10T07:16:31.286Z,1025.9
2018-11-10T07:17:31.347Z,1025.86
2018-11-10T07:18:31.269Z,1025.87
2018-11-10T07:19:31.257Z,1025.89
2018-11-10T07:20:31.254Z,1025.86
2018-11-10T07:21:31.234Z,1025.88
2018-11-10T07:22:31.228Z,1025.89
2018-11-10T07:23:31.213Z,1025.88
2018-11-10T07:24:31.207Z,1025.85
2018-11-10T07:25:31.197Z,1025.9
2018-11-10T07:26:31.186Z,1025.9
2018-11-10T07:27:31.174Z,1025.87
2018-11-10T07:28:31.161Z,1025.83
2018-11-10T07:29:31.156Z,1025.81
2018-11-10T07:30:31.146Z,1025.81
2018-11-10T07:31:31.135Z,1025.79
2018-11-10T07:32:31.120Z,1025.76
2018-11-10T07:33:31.115Z,1025.73
2018-11-10T07:34:31.099Z,1025.76
2018-11-10T07:35:31.096Z,1025.71
2018-11-10T07:36:31.079Z,1025.73
2018-11-10T07:37:31.157Z,1025.69
2018-11-10T07:38:31.057Z,1025.76
2018-11-10T07:39:31.052Z,1025.79
2018-11-10T07:40:31.038Z,1025.77
2018-11-10T07:41:31.028Z,1025.75
2018-11-10T07:42:31.016Z,1025.76
2018-11-10T07:43:31.015Z,1025.77
2018-11-10T07:44:30.996Z,1025.7
2018-11-10T07:45:30.991Z,1025.68
2018-11-10T07:46:30.981Z,1025.7
2018-11-10T07:47:30.971Z,1025.66
2018-11-10T07:48:30.956Z,1025.64
2018-11-10T07:49:31.048Z,1025.64
2018-11-10T07:50:30.942Z,1025.58
2018-11-10T07:51:30.931Z,1025.55
2018-11-10T07:52:30.917Z,1025.54
2018-11-10T07:53:30.913Z,1025.56
2018-11-10T07:54:30.898Z,1025.47
2018-11-10T07:55:30.894Z,1025.43
2018-11-10T07:56:30.878Z,1025.46
2018-11-10T07:57:30.868Z,1025.49
2018-11-10T07:58:30.859Z,1025.51
2018-11-10T07:59:30.855Z,1025.51
2018-11-10T08:00:30.859Z,1025.52
2018-11-10T08:01:30.830Z,1025.47
2018-11-10T08:02:30.822Z,1025.45
2018-11-10T08:03:30.810Z,1025.47
2018-11-10T08:04:30.806Z,1025.42
2018-11-10T08:05:30.791Z,1025.37
2018-11-10T08:06:30.787Z,1025.33
2018-11-10T08:07:30.772Z,1025.29
2018-11-10T08:08:30.767Z,1025.17
2018-11-10T08:09:30.753Z,1025.16
2018-11-10T08:10:30.743Z,1025.13
2018-11-10T08:11:30.738Z,1025.14
2018-11-10T08:12:30.731Z,1025.05
2018-11-10T08:13:30.715Z,1025.02
2018-11-10T08:14:30.705Z,1025.01
2018-11-10T08:15:30.700Z,1025.05
2018-11-10T08:16:30.692Z,1024.94
2018-11-10T08:17:30.678Z,1024.87
2018-11-10T08:18:30.700Z,1024.78
2018-11-10T08:19:30.659Z,1024.84
2018-11-10T08:20:30.657Z,1024.89
2018-11-10T08:21:30.639Z,1024.82
2018-11-10T08:22:30.634Z,1024.82
2018-11-10T08:23:30.621Z,1024.77
2018-11-10T08:24:30.617Z,1024.77
2018-11-10T08:25:30.602Z,1024.73
2018-11-10T08:26:30.599Z,1024.69
2018-11-10T08:27:30.584Z,1024.69
2018-11-10T08:28:30.581Z,1024.64
2018-11-10T08:29:30.570Z,1024.67
2018-11-10T08:30:30.561Z,1024.62
2018-11-10T08:31:30.547Z,1024.64
2018-11-10T08:32:30.538Z,1024.61
2018-11-10T08:33:30.534Z,1024.61
2018-11-10T08:34:30.525Z,1024.54
2018-11-10T08:35:30.510Z,1024.56
2018-11-10T08:36:30.507Z,1024.56
2018-11-10T08:37:30.492Z,1024.49
2018-11-10T08:38:30.489Z,1024.5
2018-11-10T08:39:30.476Z,1024.52
2018-11-10T08:40:30.469Z,1024.41
2018-11-10T08:41:30.458Z,1024.44
2018-11-10T08:42:30.452Z,1024.41
2018-11-10T08:43:30.439Z,1024.36
2018-11-10T08:44:30.434Z,1024.37
2018-11-10T08:45:30.426Z,1024.37
2018-11-10T08:46:30.416Z,1024.29
2018-11-10T08:47:30.403Z,1024.28
2018-11-10T08:48:30.394Z,1024.25
2018-11-10T08:49:30.391Z,1024.31
2018-11-10T08:50:30.382Z,1024.24
2018-11-10T08:51:30.373Z,1024.21
2018-11-10T08:52:30.359Z,1024.2
2018-11-10T08:53:30.355Z,1024.18
2018-11-10T08:54:30.342Z,1024.11
2018-11-10T08:55:30.337Z,1024.03
2018-11-10T08:56:30.325Z,1024.01
2018-11-10T08:57:30.380Z,1023.97
2018-11-10T08:58:30.309Z,1023.96
2018-11-10T08:59:30.303Z,1024
2018-11-10T09:00:30.291Z,1024.04
2018-11-10T09:01:30.288Z,1024.06
2018-11-10T09:02:30.282Z,1024.04
2018-11-10T09:03:30.265Z,1023.97
2018-11-10T09:04:30.256Z,1024.05
2018-11-10T09:05:30.253Z,1024.13
2018-11-10T09:06:30.244Z,1024.08
2018-11-10T09:07:30.235Z,1024.12
2018-11-10T09:08:30.225Z,1024.14
2018-11-10T09:09:30.220Z,1024.1
2018-11-10T09:10:30.206Z,1024.02
2018-11-10T09:11:30.203Z,1024
2018-11-10T09:12:30.189Z,1023.93
2018-11-10T09:13:30.204Z,1023.93
2018-11-10T09:14:30.176Z,1023.87
2018-11-10T09:15:30.164Z,1023.89
2018-11-10T09:16:30.160Z,1023.92
2018-11-10T09:17:30.206Z,1023.87
2018-11-10T09:18:30.142Z,1023.85
2018-11-10T09:19:30.131Z,1023.92
2018-11-10T09:20:30.121Z,1023.92
2018-11-10T09:21:30.322Z,1023.92
2018-11-10T09:22:30.109Z,1023.96
2018-11-10T09:23:30.102Z,1023.9
2018-11-10T09:24:30.089Z,1023.93
2018-11-10T09:25:30.085Z,1023.88
2018-11-10T09:26:30.076Z,1023.88
2018-11-10T09:27:30.065Z,1023.8
2018-11-10T09:28:30.061Z,1023.78
2018-11-10T09:29:30.049Z,1023.72
2018-11-10T09:30:30.045Z,1023.58
2018-11-10T09:31:30.032Z,1023.57
2018-11-10T09:32:30.030Z,1023.5
2018-11-10T09:33:30.025Z,1023.37
2018-11-10T09:34:30.015Z,1023.41
2018-11-10T09:35:30.002Z,1023.46
2018-11-10T09:36:30.118Z,1023.43
2018-11-10T09:37:29.990Z,1023.44
2018-11-10T09:38:29.980Z,1023.4
2018-11-10T09:39:29.975Z,1023.41
2018-11-10T09:40:29.962Z,1023.41
2018-11-10T09:41:29.959Z,1023.32
2018-11-10T09:42:30.200Z,1023.26
2018-11-10T09:43:29.942Z,1023.16
2018-11-10T09:44:29.934Z,1023.19
2018-11-10T09:45:29.929Z,1023.09
2018-11-10T09:46:29.916Z,1023.08
2018-11-10T09:47:29.914Z,1023.12
2018-11-10T09:48:29.900Z,1023.12
2018-11-10T09:49:29.896Z,1023
2018-11-10T09:50:29.885Z,1023.05
2018-11-10T09:51:30.132Z,1023.06
2018-11-10T09:52:29.870Z,1023.04
2018-11-10T09:53:29.866Z,1023.05
2018-11-10T09:54:29.860Z,1023.05
2018-11-10T09:55:29.852Z,1022.99
2018-11-10T09:56:29.841Z,1023.04
2018-11-10T09:57:29.838Z,1023.1
2018-11-10T09:58:29.825Z,1023.05
2018-11-10T09:59:29.833Z,1023.1
2018-11-10T10:00:29.811Z,1023.07
2018-11-10T10:01:29.972Z,1023.11
2018-11-10T10:02:30.159Z,1023.12
2018-11-10T10:03:29.793Z,1023.2
2018-11-10T10:04:29.781Z,1023.24
2018-11-10T10:05:29.775Z,1023.19
2018-11-10T10:06:29.767Z,1023.14
2018-11-10T10:07:29.765Z,1023.15
2018-11-10T10:08:29.757Z,1023.2
2018-11-10T10:09:29.745Z,1023.14
2018-11-10T10:10:29.738Z,1023.2
2018-11-10T10:11:29.730Z,1023.25
2018-11-10T10:12:29.728Z,1023.27
2018-11-10T10:13:29.716Z,1023.3
2018-11-10T10:14:29.713Z,1023.32
2018-11-10T10:15:29.701Z,1023.35
2018-11-10T10:16:29.905Z,1023.25
2018-11-10T10:17:29.686Z,1023.2
2018-11-10T10:18:29.679Z,1023.16
2018-11-10T10:19:29.677Z,1023.14
2018-11-10T10:20:29.663Z,1023.01
2018-11-10T10:21:29.656Z,1022.95
2018-11-10T10:22:29.651Z,1022.95
2018-11-10T10:23:29.645Z,1022.9
2018-11-10T10:24:29.638Z,1022.84
2018-11-10T10:25:29.628Z,1022.84
2018-11-10T10:26:29.619Z,1022.81
2018-11-10T10:27:29.612Z,1022.76
2018-11-10T10:28:29.675Z,1022.68
2018-11-10T10:29:29.597Z,1022.57
2018-11-10T10:30:29.595Z,1022.56
2018-11-10T10:31:29.582Z,1022.54
2018-11-10T10:32:29.579Z,1022.57
2018-11-10T10:33:29.568Z,1022.56
2018-11-10T10:34:29.703Z,1022.63
2018-11-10T10:35:29.768Z,1022.66
2018-11-10T10:36:29.552Z,1022.66
2018-11-10T10:37:29.545Z,1022.65
2018-11-10T10:38:29.537Z,1022.55
2018-11-10T10:39:29.525Z,1022.57
2018-11-10T10:40:29.523Z,1022.58
2018-11-10T10:41:29.515Z,1022.65
2018-11-10T10:42:29.508Z,1022.63
2018-11-10T10:43:29.498Z,1022.59
2018-11-10T10:44:29.493Z,1022.68
2018-11-10T10:45:29.482Z,1022.75
2018-11-10T10:46:29.479Z,1022.77
2018-11-10T10:47:29.469Z,1022.82
2018-11-10T10:48:29.580Z,1022.86
2018-11-10T10:49:29.455Z,1022.77
2018-11-10T10:50:29.451Z,1022.78
2018-11-10T10:51:29.451Z,1022.75
2018-11-10T10:52:29.437Z,1022.83
2018-11-10T10:53:29.431Z,1022.79
2018-11-10T10:54:29.424Z,1022.89
2018-11-10T10:55:29.410Z,1022.95
2018-11-10T10:56:29.438Z,1023.02
2018-11-10T10:57:29.396Z,1023.09
2018-11-10T10:58:29.390Z,1023.1
2018-11-10T10:59:29.383Z,1023.1
2018-11-10T11:00:29.378Z,1023.13
2018-11-10T11:01:29.371Z,1023.17
2018-11-10T11:02:29.365Z,1023.18
2018-11-10T11:03:29.448Z,1023.18
2018-11-10T11:04:29.351Z,1023.16
2018-11-10T11:05:29.339Z,1023.15
2018-11-10T11:06:29.335Z,1023.23
2018-11-10T11:07:29.323Z,1023.21
2018-11-10T11:08:29.319Z,1023.11
2018-11-10T11:09:29.374Z,1023.15
2018-11-10T11:10:29.300Z,1023.11
2018-11-10T11:11:29.297Z,1023.18
2018-11-10T11:12:29.289Z,1023.13
2018-11-10T11:13:29.282Z,1023.12
2018-11-10T11:14:29.269Z,1023.06
2018-11-10T11:15:29.426Z,1023.01
2018-11-10T11:16:29.260Z,1023.12
2018-11-10T11:17:29.248Z,1023.1
2018-11-10T11:18:29.242Z,1023.1
2018-11-10T11:19:29.231Z,1023.05
2018-11-10T11:20:29.232Z,1023.02
2018-11-10T11:21:29.215Z,1022.98
2018-11-10T11:22:29.212Z,1023.05
2018-11-10T11:23:29.200Z,1023.05
2018-11-10T11:24:29.195Z,1023.03
2018-11-10T11:25:29.188Z,1023.02
2018-11-10T11:26:29.181Z,1023.04
2018-11-10T11:27:29.169Z,1023.02
2018-11-10T11:28:29.161Z,1023.06
2018-11-10T11:29:29.328Z,1023.14
2018-11-10T11:30:29.157Z,1023.12
2018-11-10T11:31:29.146Z,1023.1
2018-11-10T11:32:29.136Z,1023.14
2018-11-10T11:33:29.126Z,1023.15
2018-11-10T11:34:29.124Z,1023.13
2018-11-10T11:35:29.203Z,1023.18
2018-11-10T11:36:29.102Z,1023.23
2018-11-10T11:37:29.091Z,1023.28
2018-11-10T11:38:29.097Z,1023.33
2018-11-10T11:39:29.076Z,1023.4
2018-11-10T11:40:29.073Z,1023.38
2018-11-10T11:41:29.276Z,1023.39
2018-11-10T11:42:29.057Z,1023.37
2018-11-10T11:43:29.044Z,1023.37
2018-11-10T11:44:29.037Z,1023.29
2018-11-10T11:45:29.034Z,1023.28
2018-11-10T11:46:29.031Z,1023.25
2018-11-10T11:47:29.024Z,1023.2
2018-11-10T11:48:29.006Z,1023.19
2018-11-10T11:49:29.004Z,1023.18
2018-11-10T11:50:28.994Z,1023.13
2018-11-10T11:51:28.989Z,1023.09
2018-11-10T11:52:28.977Z,1023.03
2018-11-10T11:53:28.974Z,1022.99
2018-11-10T11:54:28.965Z,1022.96
2018-11-10T11:55:28.958Z,1022.95
2018-11-10T11:56:28.948Z,1022.95
2018-11-10T11:57:28.949Z,1022.95
2018-11-10T11:58:29.031Z,1022.93
2018-11-10T11:59:28.936Z,1022.88
2018-11-10T12:00:28.918Z,1022.91
2018-11-10T12:01:28.915Z,1022.94
2018-11-10T12:02:28.907Z,1022.88
2018-11-10T12:03:28.900Z,1022.9
2018-11-10T12:04:28.903Z,1022.88
2018-11-10T12:05:28.885Z,1022.86
2018-11-10T12:06:28.872Z,1022.83
2018-11-10T12:07:28.869Z,1022.81
2018-11-10T12:08:28.860Z,1022.85